Rechercher aéroport 
image banner adimage banner ad
image banner ad

DFOB - Banfora

Situé à , Burkina Faso

ICAO - DFOB, IATA - BNR

Données fournies par Airmate  

Information générale

Coordonnées: N10°41'0" W4°43'0"
Élévation : 984 feet MSL.
 
Évalué:
Voir évaluations: [VIEW]


Voir autres Aéroports à Comoe

Données opérationnelles

Accessible au public
Heure actuelle UTC:
Heure actuelle locale:
Météo à : DFOO - Bobo-Dioulasso ( 69 km )
METAR: DFOO 062000Z 20004KT CAVOK 29/23 Q1015
TAF: TAF DFOO 061700Z 0618/0718 20008KT 9999 FEW020 TEMPO 0618/0702 4000 TSRA SCT020 FEW033CB
Voir NOTAMs / SUP AIP / TFR affectant cet aéroport [VIEW]
Fréquences de communication: [VIEW]

Pistes:

Coordonnées de l'aéroport

Adresse: Burkina Faso

Vue satellite de DFOB